Flight Track Log - Related Links

Times and Time Zones

All times are in EDT time to prevent confusion due to time zone crossing. See the AAL1326 flight status page for this flight to view local times or setup timezone preferences in your user account.

Time Position Orientation Groundspeed Altitude Reporting Facility
EDT Latitude Longitude Course Direction KTS MPH feet Rate Location/Type
Fri 09:30:00 PM 41.7745 -87.7814 143° Southeast  Level Estimated
Fri 09:30:18 PM 41.9500 -87.8390 143° Southeast 245 282 4,800  Level FlightAware ADS-B
Fri 09:30:48 PM 41.9170 -87.8410 183° South 248 285 5,000 109 Climbing FlightAware ADS-B
Fri 09:31:13 PM 41.8900 -87.8430 183° South 247 284 4,900 -109 Descending FlightAware ADS-B
Fri 09:31:43 PM 41.8550 -87.8440 181° South 245 282 4,900 600 Level FlightAware ADS-B
Fri 09:32:13 PM 41.8220 -87.8420 177° South 243 280 5,500 2,291 Climbing FlightAware ADS-B
Fri 09:32:38 PM 41.7920 -87.8330 167° South 250 288 7,000 3,600 Climbing FlightAware ADS-B
Fri 09:33:08 PM 41.7590 -87.8220 166° South 253 291 8,800 3,257 Climbing FlightAware ADS-B
Fri 09:33:48 PM 41.7100 -87.8080 168° South 270 311 10,800 3,000 Climbing FlightAware ADS-B
Fri 09:34:28 PM 41.6600 -87.7940 168° South 279 321 12,800 2,188 Climbing FlightAware ADS-B
Fri 09:35:13 PM 41.5990 -87.7760 168° South 331 381 13,900 2,188 Climbing FlightAware ADS-B
Fri 09:35:53 PM 41.5370 -87.7590 168° South 338 389 15,900 3,176 Climbing FlightAware ADS-B
Fri 09:36:38 PM 41.4690 -87.7390 168° South 334 384 18,400 2,612 Climbing FlightAware ADS-B
Fri 09:37:18 PM 41.4070 -87.7250 170° South 355 409 19,600 2,118 Climbing FlightAware ADS-B
Fri 09:38:03 PM 41.3320 -87.7250 180° South 364 419 21,400 1,840 Climbing FlightAware ADS-B
Fri 09:38:33 PM 41.2820 -87.7250 180° South 383 441 21,900 1,453 Climbing FlightAware ADS-B
Fri 09:39:38 PM 41.1610 -87.7200 178° South 402 463 23,700 1,714 Climbing FlightAware ADS-B
Fri 09:40:18 PM 41.0870 -87.7100 174° South 410 472 24,900 1,800 Climbing FlightAware ADS-B
Fri 09:40:58 PM 41.0110 -87.7000 174° South 413 475 26,100 1,694 Climbing FlightAware ADS-B
Fri 09:41:43 PM 40.9260 -87.6890 174° South 420 483 27,300 1,500 Climbing FlightAware ADS-B
Fri 09:42:18 PM 40.8560 -87.6790 174° South 426 490 28,100 1,275 Climbing FlightAware ADS-B
Fri 09:43:03 PM 40.7700 -87.6680 174° South 435 501 29,000 1,326 Climbing FlightAware ADS-B
Fri 09:43:53 PM 40.6660 -87.6540 174° South 439 505 30,200 1,533 Climbing FlightAware ADS-B
Fri 09:44:33 PM 40.5840 -87.6430 174° South 435 501 31,300 1,725 Climbing FlightAware ADS-B
Fri 09:45:13 PM 40.5060 -87.6330 174° South 427 491 32,500 1,694 Climbing FlightAware ADS-B
Fri 09:45:58 PM 40.4220 -87.6210 174° South 421 484 33,700 1,553 Climbing FlightAware ADS-B
Fri 09:46:38 PM 40.3390 -87.6100 174° South 416 479 34,700 1,341 Climbing FlightAware ADS-B
Fri 09:47:23 PM 40.2610 -87.5720 160° South 410 472 35,600 1,280 Climbing FlightAware ADS-B
Fri 09:47:53 PM 40.2100 -87.5330 150° Southeast 406 467 36,300 1,050 Climbing FlightAware ADS-B
Fri 09:48:43 PM 40.1420 -87.4470 136° Southeast 408 470 37,000 442 Climbing FlightAware ADS-B
Fri 09:49:28 PM 40.0840 -87.3750 136° Southeast 408 470 37,000  Level FlightAware ADS-B
Fri 09:50:03 PM 40.0320 -87.3220 142° Southeast 408 470 37,000  Level FlightAware ADS-B
Fri 09:50:53 PM 39.9560 -87.2470 143° Southeast 408 470 37,000  Level FlightAware ADS-B
Fri 09:51:23 PM 39.9080 -87.2110 150° Southeast 406 467 37,000  Level FlightAware ADS-B
Fri 09:52:13 PM 39.8180 -87.1670 159° South 405 466 37,000  Level FlightAware ADS-B
Fri 09:53:08 PM 39.7290 -87.1230 159° South 403 464 37,000  Level FlightAware ADS-B
Fri 09:53:53 PM 39.6440 -87.0830 160° South 403 464 37,000  Level FlightAware ADS-B
Fri 09:54:33 PM 39.5740 -87.0490 159° South 402 463 37,000  Level FlightAware ADS-B
Fri 09:55:18 PM 39.4940 -87.0100 159° South 402 463 37,000  Level FlightAware ADS-B
Fri 09:55:58 PM 39.4240 -86.9760 159° South 402 463 37,000  Level FlightAware ADS-B
Fri 09:56:38 PM 39.3550 -86.9420 159° South 403 464 37,000  Level FlightAware ADS-B
Fri 09:57:23 PM 39.2730 -86.9210 169° South 404 465 37,000  Level FlightAware ADS-B
Fri 09:58:03 PM 39.2000 -86.9050 170° South 403 464 37,000  Level FlightAware ADS-B
Fri 09:58:48 PM 39.1170 -86.8870 170° South 404 465 37,000  Level FlightAware ADS-B
Fri 09:59:28 PM 39.0410 -86.8700 170° South 405 466 37,000  Level FlightAware ADS-B
Fri 10:00:13 PM 38.9600 -86.8530 171° South 404 465 37,000  Level FlightAware ADS-B
Fri 10:00:53 PM 38.8850 -86.8370 171° South 404 465 37,000  Level FlightAware ADS-B
Fri 10:01:33 PM 38.8130 -86.8210 170° South 405 466 37,000  Level FlightAware ADS-B
Fri 10:02:18 PM 38.7340 -86.7860 161° South 405 466 37,000  Level FlightAware ADS-B
Fri 10:02:58 PM 38.6620 -86.7500 159° South 406 467 37,000  Level FlightAware ADS-B
Fri 10:03:38 PM 38.5950 -86.7170 159° South 407 468 37,000  Level FlightAware ADS-B
Fri 10:04:23 PM 38.5150 -86.6780 159° South 407 468 37,000  Level FlightAware ADS-B
Fri 10:05:03 PM 38.4440 -86.6430 159° South 407 468 37,000  Level FlightAware ADS-B
Fri 10:05:48 PM 38.3630 -86.6030 159° South 406 467 37,000  Level FlightAware ADS-B
Fri 10:06:28 PM 38.2960 -86.5710 159° South 406 467 37,000  Level FlightAware ADS-B
Fri 10:07:08 PM 38.2230 -86.5350 159° South 405 466 37,000  Level FlightAware ADS-B
Fri 10:07:48 PM 38.1530 -86.5010 159° South 403 464 37,000  Level FlightAware ADS-B
Fri 10:08:33 PM 38.0760 -86.4640 159° South 402 463 37,000  Level FlightAware ADS-B
Fri 10:09:13 PM 38.0070 -86.4300 159° South 401 461 37,000  Level FlightAware ADS-B
Fri 10:09:58 PM 37.9310 -86.3940 160° South 400 460 37,000  Level FlightAware ADS-B
Fri 10:10:38 PM 37.8620 -86.3600 159° South 400 460 37,000  Level FlightAware ADS-B
Fri 10:11:18 PM 37.7890 -86.3250 159° South 401 461 37,000  Level FlightAware ADS-B
Fri 10:12:03 PM 37.7140 -86.2890 159° South 401 461 37,000  Level FlightAware ADS-B
Fri 10:12:43 PM 37.6430 -86.2550 159° South 400 460 37,000  Level FlightAware ADS-B
Fri 10:13:28 PM 37.5670 -86.2190 159° South 400 460 37,000  Level FlightAware ADS-B
Fri 10:13:55 PM 37.5146 -86.1937 159° South 400 460 37,000  Level FlightAware ADS-B
Fri 10:14:26 PM 37.4600 -86.1677 159° South 399 459 37,000  Level FlightAware ADS-B
Fri 10:14:58 PM 37.4055 -86.1417 159° South 399 459 37,000  Level FlightAware ADS-B
Fri 10:15:28 PM 37.3536 -86.1170 159° South 398 458 37,000  Level FlightAware ADS-B
Fri 10:15:59 PM 37.3001 -86.0916 159° South 398 458 37,000  Level FlightAware ADS-B
Fri 10:16:30 PM 37.2478 -86.0669 159° South 397 457 37,000  Level FlightAware ADS-B
Fri 10:17:00 PM 37.1954 -86.0421 159° South 397 457 37,000  Level FlightAware ADS-B
Fri 10:17:31 PM 37.1428 -86.0173 159° South 397 457 37,000  Level FlightAware ADS-B
Fri 10:18:23 PM 37.0560 -85.9770 160° South 397 457 37,000  Level FlightAware ADS-B
Fri 10:19:02 PM 36.9857 -85.9433 159° South 398 458 37,000  Level FlightAware ADS-B
Fri 10:19:34 PM 36.9304 -85.9173 159° South 398 458 37,000  Level FlightAware ADS-B
Fri 10:20:04 PM 36.8783 -85.8929 159° South 399 459 37,000  Level FlightAware ADS-B
Fri 10:20:35 PM 36.8261 -85.8685 159° South 399 459 37,000  Level FlightAware ADS-B
Fri 10:21:05 PM 36.7738 -85.8440 159° South 398 458 37,000  Level FlightAware ADS-B
Fri 10:21:35 PM 36.7220 -85.8198 159° South 398 458 37,000  Level FlightAware ADS-B
Fri 10:22:10 PM 36.6611 -85.7914 159° South 398 458 37,000  Level FlightAware ADS-B
Fri 10:22:42 PM 36.6064 -85.7660 160° South 399 459 37,000  Level FlightAware ADS-B
Fri 10:23:13 PM 36.5529 -85.7413 160° South 399 459 37,000  Level FlightAware ADS-B
Fri 10:23:43 PM 36.5006 -85.7169 159° South 398 458 37,000  Level FlightAware ADS-B
Fri 10:24:13 PM 36.4484 -85.6927 160° South 398 458 37,000  Level FlightAware ADS-B
Fri 10:24:46 PM 36.3920 -85.6667 160° South 398 458 37,000  Level FlightAware ADS-B
Fri 10:25:17 PM 36.3379 -85.6418 160° South 399 459 37,000  Level FlightAware ADS-B
Fri 10:25:48 PM 36.2852 -85.6175 160° South 399 459 37,000  Level FlightAware ADS-B
Fri 10:26:19 PM 36.2316 -85.5927 160° South 399 459 37,000  Level FlightAware ADS-B
Fri 10:27:01 PM 36.1588 -85.5589 159° South 400 460 37,000  Level FlightAware ADS-B
Fri 10:27:31 PM 36.1067 -85.5351 160° South 400 460 37,000  Level FlightAware ADS-B
Fri 10:28:01 PM 36.0544 -85.5113 160° South 401 461 37,000  Level FlightAware ADS-B
Fri 10:28:32 PM 36.0007 -85.4868 160° South 403 464 37,000  Level FlightAware ADS-B
Fri 10:29:02 PM 35.9479 -85.4626 160° South 403 464 37,000  Level FlightAware ADS-B
Fri 10:29:32 PM 35.8948 -85.4384 160° South 404 465 37,000  Level FlightAware ADS-B
Fri 10:30:02 PM 35.8423 -85.4146 160° South 404 465 37,000  Level FlightAware ADS-B
Fri 10:30:34 PM 35.7874 -85.3895 160° South 405 466 37,000  Level FlightAware ADS-B
Fri 10:31:04 PM 35.7330 -85.3647 160° South 405 466 37,000  Level FlightAware ADS-B
Fri 10:31:40 PM 35.6701 -85.3362 160° South 406 467 37,000  Level FlightAware ADS-B
Fri 10:32:11 PM 35.6157 -85.3116 160° South 408 470 37,000  Level FlightAware ADS-B
Fri 10:32:41 PM 35.5617 -85.2871 160° South 409 471 37,000  Level FlightAware ADS-B
Fri 10:33:12 PM 35.5081 -85.2628 160° South 409 471 37,000  Level FlightAware ADS-B
Fri 10:33:42 PM 35.4543 -85.2386 160° South 409 471 37,000  Level FlightAware ADS-B
Fri 10:34:14 PM 35.3970 -85.2130 160° South 410 472 37,000  Level FlightAware ADS-B
Fri 10:34:55 PM 35.3243 -85.1804 160° South 410 472 37,000  Level FlightAware ADS-B
Fri 10:35:59 PM 35.2105 -85.1291 160° South 411 473 37,000  Level FlightAware ADS-B
Fri 10:36:29 PM 35.1558 -85.1046 160° South 411 473 37,000  Level FlightAware ADS-B
Fri 10:37:19 PM 35.0674 -85.0653 160° South 409 471 37,000  Level FlightAware ADS-B
Fri 10:37:58 PM 34.9983 -85.0345 160° South 406 467 37,000  Level FlightAware ADS-B
Fri 10:38:40 PM 34.9243 -85.0016 160° South 406 467 37,000  Level FlightAware ADS-B
Fri 10:39:18 PM 34.8700 -84.9770 160° South 398 458 37,000  Level FlightAware ADS-B
Fri 10:39:35 PM 34.8277 -84.9587 160° South 406 467 37,000  Level FlightAware ADS-B
Fri 10:40:06 PM 34.7721 -84.9340 160° South 407 468 37,000  Level FlightAware ADS-B
Fri 10:40:42 PM 34.7077 -84.9054 160° South 410 472 37,000  Level FlightAware ADS-B
Fri 10:41:15 PM 34.6504 -84.8801 160° South 411 473 37,000  Level FlightAware ADS-B
Fri 10:41:48 PM 34.5913 -84.8541 160° South 412 474 37,000  Level FlightAware ADS-B
Fri 10:42:18 PM 34.5360 -84.8299 160° South 413 475 37,000  Level FlightAware ADS-B
Fri 10:42:49 PM 34.4812 -84.8058 160° South 414 476 37,000  Level FlightAware ADS-B
Fri 10:43:19 PM 34.4264 -84.7817 160° South 414 476 37,000  Level FlightAware ADS-B
Fri 10:43:52 PM 34.3671 -84.7557 160° South 414 476 37,000  Level FlightAware ADS-B
Fri 10:44:43 PM 34.2820 -84.7180 160° South 413 475 37,000  Level FlightAware ADS-B
Fri 10:45:18 PM 34.2190 -84.6910 160° South 414 476 37,000  Level FlightAware ADS-B
Fri 10:46:08 PM 34.1300 -84.6520 160° South 408 470 37,000  Level FlightAware ADS-B
Fri 10:46:48 PM 34.0570 -84.6210 161° South 408 470 37,000  Level FlightAware ADS-B
Fri 10:47:28 PM 33.9860 -84.5900 160° South 415 478 37,000  Level FlightAware ADS-B
Fri 10:48:08 PM 33.9140 -84.5560 159° South 414 476 37,000  Level FlightAware ADS-B
Fri 10:48:58 PM 33.8280 -84.5160 159° South 415 478 37,000  Level FlightAware ADS-B
Fri 10:49:38 PM 33.7530 -84.4810 159° South 413 475 37,000  Level FlightAware ADS-B
Fri 10:50:23 PM 33.6740 -84.4450 159° South 412 474 37,000  Level FlightAware ADS-B
Fri 10:50:49 PM 33.6190 -84.4196 159° South 412 474 37,000  Level FlightAware ADS-B
Fri 10:51:22 PM 33.5604 -84.3927 159° South 412 474 37,000  Level FlightAware ADS-B
Fri 10:52:28 PM 33.4450 -84.3400 159° South 414 476 37,000  Level FlightAware ADS-B
Fri 10:52:51 PM 33.4010 -84.3198 159° South 414 476 37,000  Level FlightAware ADS-B
Fri 10:53:48 PM 33.3000 -84.2730 159° South 415 478 37,000  Level FlightAware ADS-B
Fri 10:54:33 PM 33.2240 -84.2390 159° South 416 479 37,000  Level FlightAware ADS-B
Fri 10:55:13 PM 33.1510 -84.2060 159° South 416 479 37,000  Level FlightAware ADS-B
Fri 10:55:58 PM 33.0690 -84.1690 159° South 417 480 37,000  Level FlightAware ADS-B
Fri 10:56:38 PM 32.9940 -84.1350 159° South 417 480 37,000  Level FlightAware ADS-B
Fri 10:57:18 PM 32.9210 -84.1020 159° South 419 482 37,000  Level FlightAware ADS-B
Fri 10:58:28 PM 32.8020 -84.0480 159° South 422 486 37,000  Level FlightAware ADS-B
Fri 10:59:13 PM 32.7260 -84.0130 159° South 422 486 37,000  Level FlightAware ADS-B
Fri 10:59:53 PM 32.6640 -83.9850 159° South 422 486 37,000  Level FlightAware ADS-B
Fri 11:00:23 PM 32.6180 -83.9640 159° South 422 486 37,000  Level FlightAware ADS-B
Fri 11:01:03 PM 32.5560 -83.9360 159° South 422 486 37,000  Level FlightAware ADS-B
Fri 11:01:43 PM 32.4940 -83.9070 158° South 422 486 37,000  Level FlightAware ADS-B
Fri 11:02:23 PM 32.4320 -83.8790 159° South 422 486 37,000  Level FlightAware ADS-B
Fri 11:03:03 PM 32.3700 -83.8510 159° South 422 486 37,000  Level FlightAware ADS-B
Fri 11:03:53 PM 32.2920 -83.8160 159° South 422 486 37,000  Level FlightAware ADS-B
Fri 11:04:33 PM 32.2300 -83.7880 159° South 422 486 37,000  Level FlightAware ADS-B
Fri 11:05:13 PM 32.1680 -83.7600 159° South 422 486 37,000  Level FlightAware ADS-B
Fri 11:05:53 PM 32.1060 -83.7310 158° South 422 486 37,000  Level FlightAware ADS-B
Fri 11:06:33 PM 32.0440 -83.7030 159° South 422 486 37,000  Level FlightAware ADS-B
Fri 11:07:23 PM 31.9670 -83.6680 159° South 422 486 37,000  Level FlightAware ADS-B
Fri 11:08:03 PM 31.9050 -83.6400 159° South 422 486 37,000  Level FlightAware ADS-B
Fri 11:08:20 PM 31.6928 -83.6056 159° South 432 497 37,000  Level Jacksonville Center
Fri 11:09:20 PM 31.5697 -83.5681 165° South 437 503 37,000  Level Jacksonville Center
Fri 11:10:20 PM 31.4572 -83.5356 166° South 437 503 37,000  Level Jacksonville Center
Fri 11:11:20 PM 31.3403 -83.5008 166° South 431 496 37,000  Level Jacksonville Center
Fri 11:12:20 PM 31.2214 -83.4658 166° South 431 496 37,000  Level Jacksonville Center
Fri 11:13:20 PM 31.1028 -83.4289 165° South 431 496 37,000  Level Jacksonville Center
Fri 11:14:20 PM 30.9881 -83.3967 166° South 431 496 37,000  Level Jacksonville Center
Fri 11:15:20 PM 30.8692 -83.3597 165° South 436 502 37,000  Level Jacksonville Center
Fri 11:16:20 PM 30.7522 -83.3228 165° South 436 502 37,000  Level Jacksonville Center
Fri 11:17:20 PM 30.6314 -83.2861 165° South 436 502 37,000  Level Jacksonville Center
Fri 11:18:20 PM 30.5083 -83.2494 166° South 436 502 37,000  Level Jacksonville Center
Fri 11:19:20 PM 30.3892 -83.2153 166° South 441 507 37,000  Level Jacksonville Center
Fri 11:24:58 PM 29.7060 -83.0140 166° South 37,000  Level FlightAware ADS-B
Fri 11:25:18 PM 29.6670 -83.0030 166° South 446 513 37,000  Level FlightAware ADS-B
Fri 11:26:03 PM 29.5750 -82.9760 166° South 447 514 37,000  Level FlightAware ADS-B
Fri 11:26:43 PM 29.4910 -82.9520 166° South 447 514 37,000  Level FlightAware ADS-B
Fri 11:27:23 PM 29.4100 -82.9280 166° South 447 514 37,000  Level FlightAware ADS-B
Fri 11:28:08 PM 29.3210 -82.9020 166° South 448 516 37,000  Level FlightAware ADS-B
Fri 11:28:48 PM 29.2380 -82.8780 166° South 449 517 37,000  Level FlightAware ADS-B
Fri 11:29:33 PM 29.1440 -82.8510 166° South 450 518 37,000  Level FlightAware ADS-B
Fri 11:30:08 PM 29.0730 -82.8300 166° South 450 518 37,000  Level FlightAware ADS-B
Fri 11:30:58 PM 28.9680 -82.8000 166° South 449 517 37,000  Level FlightAware ADS-B
Fri 11:31:38 PM 28.8800 -82.7750 166° South 457 526 37,000  Level FlightAware ADS-B
Fri 11:32:18 PM 28.8030 -82.7530 166° South 450 518 37,000  Level FlightAware ADS-B
Fri 11:33:03 PM 28.7110 -82.7260 166° South 450 518 37,000  Level FlightAware ADS-B
Fri 11:33:43 PM 28.6280 -82.7030 166° South 449 517 37,000  Level FlightAware ADS-B
Fri 11:34:28 PM 28.5380 -82.6770 166° South 449 517 37,000  Level FlightAware ADS-B
Fri 11:35:08 PM 28.4510 -82.6520 166° South 449 517 37,000  Level FlightAware ADS-B
Fri 11:35:48 PM 28.3680 -82.6290 166° South 448 516 37,000  Level FlightAware ADS-B
Fri 11:36:33 PM 28.2750 -82.6020 166° South 448 516 37,000  Level FlightAware ADS-B
Fri 11:37:08 PM 28.2140 -82.5850 166° South 449 517 37,000  Level FlightAware ADS-B
Fri 11:37:58 PM 28.1020 -82.5530 166° South 456 525 37,000  Level FlightAware ADS-B
Fri 11:38:38 PM 28.0180 -82.5290 166° South 456 525 37,000  Level FlightAware ADS-B
Fri 11:39:18 PM 27.9370 -82.5040 165° South 460 529 37,000  Level FlightAware ADS-B
Fri 11:40:03 PM 27.8480 -82.4710 162° South 459 528 37,000 -212 Level FlightAware ADS-B
Fri 11:40:43 PM 27.7630 -82.4400 162° South 459 528 36,700 -1,200 Descending FlightAware ADS-B
Fri 11:41:23 PM 27.6850 -82.4110 162° South 463 533 35,400 -2,329 Descending FlightAware ADS-B
Fri 11:42:08 PM 27.5920 -82.3770 162° South 466 536 33,400 -2,471 Descending FlightAware ADS-B
Fri 11:42:48 PM 27.5130 -82.3480 162° South 457 526 31,900 -1,694 Descending FlightAware ADS-B
Fri 11:43:33 PM 27.4230 -82.3070 158° South 465 535 31,000 -635 Descending FlightAware ADS-B
Fri 11:44:13 PM 27.3520 -82.2420 141° Southeast 488 562 31,000  Level FlightAware ADS-B
Fri 11:44:58 PM 27.2790 -82.1670 138° Southeast 491 565 31,000  Level FlightAware ADS-B
Fri 11:45:38 PM 27.2140 -82.0990 137° Southeast 486 559 31,000  Level FlightAware ADS-B
Fri 11:46:33 PM 27.1200 -82.0020 137° Southeast 493 567 31,000 -758 Level FlightAware ADS-B
Fri 11:47:13 PM 27.0530 -81.9330 137° Southeast 488 562 29,800 -2,259 Descending FlightAware ADS-B
Fri 11:47:58 PM 26.9780 -81.8550 137° Southeast 475 547 27,800 -2,541 Descending FlightAware ADS-B
Fri 11:48:38 PM 26.9150 -81.7910 138° Southeast 464 534 26,200 -2,100 Descending FlightAware ADS-B
Fri 11:49:58 PM 26.7980 -81.6700 137° Southeast 437 503 23,600 -2,160 Descending FlightAware ADS-B
Fri 11:50:43 PM 26.7300 -81.6010 138° Southeast 433 498 21,700 -2,558 Descending FlightAware ADS-B
Fri 11:53:08 PM 26.4830 -81.4750 155° Southeast 389 448 15,500 -2,562 Descending FlightAware ADS-B
Fri 11:53:48 PM 26.4280 -81.4160 136° Southeast 385 443 13,800 -2,325 Descending FlightAware ADS-B
Fri 11:54:28 PM 26.3890 -81.3620 129° Southeast 377 434 12,400 -1,800 Descending FlightAware ADS-B
Fri 11:55:08 PM 26.3460 -81.3010 128° Southeast 362 417 11,400 -847 Descending FlightAware ADS-B
Fri 11:55:53 PM 26.2980 -81.2340 129° Southeast 315 362 11,200 -783 Descending FlightAware ADS-B
Fri 11:57:03 PM 26.2330 -81.1440 129° Southeast 310 357 9,900 -1,200 Descending FlightAware ADS-B
Fri 11:57:28 PM 26.2100 -81.1130 130° Southeast 305 351 9,300 -1,200 Descending FlightAware ADS-B
Fri 11:58:13 PM 26.1710 -81.0600 129° Southeast 291 335 8,500 -1,040 Descending FlightAware ADS-B
Fri 11:58:43 PM 26.1440 -81.0230 129° Southeast 291 335 8,000 -1,029 Descending FlightAware ADS-B
Fri 11:59:23 PM 26.1110 -80.9750 127° Southeast 287 330 7,300 -982 Descending FlightAware ADS-B
Fri 11:59:38 PM 26.1040 -80.9540 110° East 293 337 7,100 -857 Descending FlightAware ADS-B
Fri 11:59:58 PM 26.1010 -80.9250 97° East 295 339 6,800 -947 Descending FlightAware ADS-B
Sat 12:01:13 AM 26.1080 -80.8190 86° East 284 327 5,600 -1,000 Descending FlightAware ADS-B
Sat 12:01:28 AM 26.1100 -80.7960 84° East 283 326 5,300 -857 Descending FlightAware ADS-B
Sat 12:01:48 AM 26.1120 -80.7670 86° East 280 322 5,100 -171 Descending FlightAware ADS-B
Sat 12:02:38 AM 26.1180 -80.6970 85° East 273 314 5,100  Level FlightAware ADS-B
Sat 12:02:53 AM 26.1200 -80.6760 84° East 257 296 5,100 86 Level FlightAware ADS-B
Sat 12:03:48 AM 26.1260 -80.6080 84° East 237 273 5,200 75 Climbing FlightAware ADS-B
Sat 12:04:13 AM 26.1280 -80.5770 86° East 236 272 5,200  Level FlightAware ADS-B
Sat 12:04:58 AM 26.1340 -80.5230 83° East 236 272 5,200  Level FlightAware ADS-B
Sat 12:05:13 AM 26.1360 -80.5050 83° East 235 270 5,200 -600 Level FlightAware ADS-B
Sat 12:06:08 AM 26.1410 -80.4400 85° East 237 273 4,500 -686 Descending FlightAware ADS-B
Sat 12:06:23 AM 26.1430 -80.4220 83° East 232 267 4,400 -1,114 Descending FlightAware ADS-B
Sat 12:07:18 AM 26.1470 -80.3570 86° East 219 252 3,200 -1,059 Descending FlightAware ADS-B
Sat 12:07:48 AM 26.1490 -80.3240 86° East 199 229 2,900 -857 Descending FlightAware ADS-B
Sat 12:08:28 AM 26.1470 -80.2850 93° East 193 222 2,200 -873 Descending FlightAware ADS-B
Sat 12:08:43 AM 26.1430 -80.2700 107° East 190 219 2,100  Descending FlightAware ADS-B
Sat 12:09:03 AM 26.1380 -80.2510 106° East 189 217 2,200 -655 Climbing FlightAware ADS-B
Sat 12:09:38 AM 26.1280 -80.2190 109° East 185 213 1,500 -1,015 Descending FlightAware ADS-B
Sat 12:10:08 AM 26.1140 -80.1980 127° Southeast 162 186 1,100 -776 Descending FlightAware ADS-B
Sat 12:11:03 AM 26.0860 -80.1690 137° Southeast 137 158 400 -565 Descending FlightAware ADS-B
Sat 12:11:33 AM 26.0730 -80.1540 134° Southeast 142 163 300 -200 Descending FlightAware ADS-B

Login

Don't have an account? Register now (free) for customized features, flight alerts, and more!